Terminal Aerodrome Forecast
Issued by NWS

Current Version | Previous Version | Graphics & Text | Print | Product List | Glossary On
Versions: 1 2 3 4 5 6 7 8 9 10 11 12 13 14 15 16 17 18
000
FTUS41 KILN 260900 AAA
TAFLCK
TAF AMD
KLCK 260954Z 2610/2706 36012KT 5SM -SHRA BR SCT015 OVC050
      TEMPO 2610/2612 2SM -SHRA BR OVC005
     FM261200 34011KT 3SM -SHRA BR SCT005 OVC015
     FM261400 33012G22KT 5SM -SHRA BR OVC018
     FM262100 32010G20KT 5SM BR VCSH BKN025
     FM262300 32014KT P6SM SCT040 BKN100=

USA.gov is the U.S. government's official web portal to all federal, state and local government web resources and services.